createdAt,value
2022-10-11T00:00:03.423Z,10.64
2022-10-11T00:01:03.359Z,10.55
2022-10-11T00:02:03.236Z,10.60
2022-10-11T00:03:03.146Z,10.54
2022-10-11T00:04:03.061Z,10.48
2022-10-11T00:05:02.972Z,10.48
2022-10-11T00:06:03.350Z,10.57
2022-10-11T00:07:02.786Z,10.46
2022-10-11T00:08:02.707Z,10.58
2022-10-11T00:09:02.609Z,10.55
2022-10-11T00:10:02.523Z,10.52
2022-10-11T00:11:02.436Z,10.58
2022-10-11T00:12:02.342Z,10.55
2022-10-11T00:13:02.253Z,10.45
2022-10-11T00:14:02.164Z,10.55
2022-10-11T00:15:02.070Z,10.49
2022-10-11T00:16:02.288Z,10.48
2022-10-11T00:17:01.896Z,10.45
2022-10-11T00:18:05.258Z,10.41
2022-10-11T00:19:01.715Z,10.39
2022-10-11T00:20:01.631Z,10.43
2022-10-11T00:21:01.541Z,10.45
2022-10-11T00:22:01.443Z,10.43
2022-10-11T00:23:01.356Z,10.39
2022-10-11T00:24:01.266Z,10.41
2022-10-11T00:25:01.179Z,10.46
2022-10-11T00:26:01.135Z,10.35
2022-10-11T00:27:01.000Z,10.39
2022-10-11T00:28:00.911Z,10.30
2022-10-11T00:29:00.823Z,10.35
2022-10-11T00:30:00.727Z,10.34
2022-10-11T00:31:00.671Z,10.26
2022-10-11T00:32:00.549Z,10.24
2022-10-11T00:33:00.453Z,10.24
2022-10-11T00:34:00.366Z,10.21
2022-10-11T00:35:00.277Z,10.14
2022-10-11T00:36:00.191Z,10.10
2022-10-11T00:37:00.107Z,10.08
2022-10-11T00:38:00.008Z,10.06
2022-10-11T00:38:59.916Z,10.12
2022-10-11T00:39:59.829Z,10.06
2022-10-11T00:40:59.741Z,10.10
2022-10-11T00:41:59.647Z,10.16
2022-10-11T00:42:59.559Z,10.01
2022-10-11T00:43:59.465Z,10.02
2022-10-11T00:44:59.381Z,9.99
2022-10-11T00:45:59.293Z,9.84
2022-10-11T00:46:59.200Z,9.87
2022-10-11T00:47:59.113Z,9.87
2022-10-11T00:48:59.016Z,9.81
2022-10-11T00:49:58.933Z,9.81
2022-10-11T00:50:58.842Z,9.69
2022-10-11T00:51:58.746Z,9.72
2022-10-11T00:52:58.661Z,9.80
2022-10-11T00:53:58.571Z,9.77
2022-10-11T00:54:58.483Z,9.81
2022-10-11T00:55:58.389Z,9.75
2022-10-11T00:56:58.303Z,9.72
2022-10-11T00:57:58.214Z,9.72
2022-10-11T00:58:58.116Z,9.67
2022-10-11T00:59:58.030Z,9.70
2022-10-11T01:00:58.022Z,9.60
2022-10-11T01:01:57.851Z,9.73
2022-10-11T01:02:57.757Z,9.69
2022-10-11T01:03:57.670Z,9.66
2022-10-11T01:05:25.200Z,9.67
2022-10-11T01:05:57.491Z,9.81
2022-10-11T01:06:57.398Z,9.75
2022-10-11T01:07:57.307Z,9.80
2022-10-11T01:08:57.221Z,9.84
2022-10-11T01:09:57.127Z,9.83
2022-10-11T01:10:57.037Z,9.62
2022-10-11T01:11:56.952Z,9.60
2022-10-11T01:12:56.862Z,9.66
2022-10-11T01:13:56.767Z,9.59
2022-10-11T01:14:56.681Z,9.60
2022-10-11T01:15:56.586Z,9.57
2022-10-11T01:16:56.496Z,9.55
2022-10-11T01:17:56.408Z,9.51
2022-10-11T01:18:56.316Z,9.51
2022-10-11T01:19:56.228Z,9.45
2022-10-11T01:20:56.136Z,9.48
2022-10-11T01:21:56.047Z,9.54
2022-10-11T01:22:55.957Z,9.51
2022-10-11T01:23:55.867Z,9.51
2022-10-11T01:24:55.775Z,9.51
2022-10-11T01:25:55.684Z,9.41
2022-10-11T01:26:55.609Z,9.37
2022-10-11T01:27:55.509Z,9.37
2022-10-11T01:28:55.443Z,9.40
2022-10-11T01:29:55.324Z,9.40
2022-10-11T01:30:55.237Z,9.42
2022-10-11T01:31:55.145Z,9.51
2022-10-11T01:32:55.058Z,9.57
2022-10-11T01:33:54.964Z,9.57
2022-10-11T01:34:54.879Z,9.51
2022-10-11T01:35:54.782Z,9.52
2022-10-11T01:36:54.698Z,9.57
2022-10-11T01:37:54.600Z,9.60
2022-10-11T01:38:54.515Z,9.55
2022-10-11T01:39:54.421Z,9.47
2022-10-11T01:40:54.331Z,9.42
2022-10-11T01:41:54.241Z,9.42
2022-10-11T01:42:54.152Z,9.29
2022-10-11T01:43:54.060Z,9.29
2022-10-11T01:44:53.972Z,9.26
2022-10-11T01:45:53.885Z,9.18
2022-10-11T01:46:53.787Z,9.18
2022-10-11T01:47:53.701Z,9.04
2022-10-11T01:48:53.611Z,9.12
2022-10-11T01:49:53.526Z,9.11
2022-10-11T01:50:53.426Z,9.04
2022-10-11T01:51:53.353Z,9.01
2022-10-11T01:52:53.249Z,9.06
2022-10-11T01:53:53.165Z,9.06
2022-10-11T01:55:09.922Z,9.16
2022-10-11T01:55:52.989Z,9.24
2022-10-11T01:56:52.889Z,9.27
2022-10-11T01:57:52.799Z,9.29
2022-10-11T01:58:52.704Z,9.33
2022-10-11T01:59:52.620Z,9.27
2022-10-11T02:00:52.528Z,9.26
2022-10-11T02:01:52.476Z,9.24
2022-10-11T02:02:52.342Z,9.23
2022-10-11T02:03:52.248Z,9.18
2022-10-11T02:04:52.164Z,9.19
2022-10-11T02:05:52.065Z,9.12
2022-10-11T02:06:51.976Z,9.08
2022-10-11T02:07:51.891Z,9.08
2022-10-11T02:08:51.794Z,9.04
2022-10-11T02:09:51.705Z,8.98
2022-10-11T02:10:51.611Z,8.93
2022-10-11T02:11:51.525Z,8.89
2022-10-11T02:12:51.434Z,8.92
2022-10-11T02:13:51.347Z,8.93
2022-10-11T02:14:51.252Z,8.90
2022-10-11T02:15:51.164Z,8.88
2022-10-11T02:16:51.070Z,9.01
2022-10-11T02:17:50.985Z,9.15
2022-10-11T02:18:50.893Z,9.09
2022-10-11T02:19:50.801Z,9.16
2022-10-11T02:20:50.713Z,9.18
2022-10-11T02:21:50.620Z,9.04
2022-10-11T02:22:50.534Z,9.16
2022-10-11T02:23:50.440Z,9.16
2022-10-11T02:24:50.352Z,9.22
2022-10-11T02:25:50.259Z,9.11
2022-10-11T02:26:50.163Z,9.16
2022-10-11T02:27:50.077Z,9.19
2022-10-11T02:28:50.039Z,9.04
2022-10-11T02:29:49.902Z,8.96
2022-10-11T02:30:49.802Z,8.99
2022-10-11T02:31:49.714Z,8.93
2022-10-11T02:32:49.622Z,8.92
2022-10-11T02:33:49.534Z,8.85
2022-10-11T02:34:49.441Z,8.86
2022-10-11T02:35:49.351Z,8.71
2022-10-11T02:36:49.264Z,8.83
2022-10-11T02:37:49.176Z,8.81
2022-10-11T02:38:49.074Z,8.71
2022-10-11T02:39:48.988Z,8.72
2022-10-11T02:40:48.898Z,8.70
2022-10-11T02:41:48.810Z,8.75
2022-10-11T02:42:48.713Z,8.71
2022-10-11T02:43:48.625Z,8.83
2022-10-11T02:44:48.529Z,8.74
2022-10-11T02:45:48.447Z,8.72
2022-10-11T02:46:48.350Z,8.70
2022-10-11T02:47:48.270Z,8.75
2022-10-11T02:48:48.168Z,8.71
2022-10-11T02:49:48.078Z,8.63
2022-10-11T02:50:47.988Z,8.60
2022-10-11T02:51:47.897Z,8.62
2022-10-11T02:52:47.809Z,8.47
2022-10-11T02:53:47.721Z,8.42
2022-10-11T02:54:47.624Z,8.42
2022-10-11T02:55:47.533Z,8.57
2022-10-11T02:56:47.442Z,8.44
2022-10-11T02:57:47.359Z,8.44
2022-10-11T02:58:47.262Z,8.38
2022-10-11T02:59:47.170Z,8.28
2022-10-11T03:00:47.080Z,8.28
2022-10-11T03:01:47.080Z,8.23
2022-10-11T03:02:46.898Z,8.20
2022-10-11T03:03:46.810Z,8.17
2022-10-11T03:04:46.713Z,8.10
2022-10-11T03:05:46.625Z,8.10
2022-10-11T03:06:46.549Z,8.14
2022-10-11T03:07:46.448Z,8.06
2022-10-11T03:08:46.350Z,8.14
2022-10-11T03:09:46.264Z,8.13
2022-10-11T03:10:46.174Z,8.16
2022-10-11T03:11:46.079Z,8.17
2022-10-11T03:12:45.992Z,8.17
2022-10-11T03:13:45.897Z,8.19
2022-10-11T03:14:45.805Z,8.06
2022-10-11T03:15:45.715Z,8.09
2022-10-11T03:16:45.623Z,8.06
2022-10-11T03:17:45.531Z,8.12
2022-10-11T03:18:45.441Z,8.02
2022-10-11T03:19:45.354Z,8.12
2022-10-11T03:20:45.259Z,7.98
2022-10-11T03:21:45.166Z,8.01
2022-10-11T03:22:45.076Z,8.05
2022-10-11T03:23:44.983Z,7.99
2022-10-11T03:24:44.896Z,8.06
2022-10-11T03:25:44.799Z,8.01
2022-10-11T03:26:44.711Z,8.05
2022-10-11T03:27:44.619Z,7.92
2022-10-11T03:28:44.690Z,7.91
2022-10-11T03:29:44.435Z,7.78
2022-10-11T03:30:44.347Z,7.80
2022-10-11T03:31:44.257Z,7.78
2022-10-11T03:32:44.168Z,7.77
2022-10-11T03:33:44.070Z,7.73
2022-10-11T03:34:43.979Z,7.68
2022-10-11T03:35:43.891Z,7.68
2022-10-11T03:36:43.800Z,7.69
2022-10-11T03:37:43.708Z,7.50
2022-10-11T03:38:43.612Z,7.57
2022-10-11T03:39:43.530Z,7.58
2022-10-11T03:40:43.430Z,7.55
2022-10-11T03:41:43.340Z,7.58
2022-10-11T03:42:43.253Z,7.57
2022-10-11T03:43:43.161Z,7.57
2022-10-11T03:44:43.067Z,7.60
2022-10-11T03:45:42.976Z,7.55
2022-10-11T03:46:42.886Z,7.54
2022-10-11T03:47:42.799Z,7.44
2022-10-11T03:48:42.704Z,7.39
2022-10-11T03:49:43.759Z,7.46
2022-10-11T03:50:42.522Z,7.39
2022-10-11T03:51:42.432Z,7.40
2022-10-11T03:52:42.336Z,7.37
2022-10-11T03:53:42.248Z,7.40
2022-10-11T03:54:42.151Z,7.39
2022-10-11T03:55:42.058Z,7.40
2022-10-11T03:56:41.968Z,7.43
2022-10-11T03:57:41.878Z,7.44
2022-10-11T03:58:41.788Z,7.52
2022-10-11T03:59:41.695Z,7.42
2022-10-11T04:00:41.605Z,7.39
2022-10-11T04:01:41.563Z,7.37
2022-10-11T04:02:41.422Z,7.37
2022-10-11T04:03:41.330Z,7.42
2022-10-11T04:04:41.235Z,7.43
2022-10-11T04:05:41.158Z,7.52
2022-10-11T04:06:41.058Z,7.46
2022-10-11T04:07:40.968Z,7.42
2022-10-11T04:08:40.874Z,7.49
2022-10-11T04:09:40.777Z,7.40
2022-10-11T04:10:40.685Z,7.44
2022-10-11T04:11:40.595Z,7.37
2022-10-11T04:12:40.508Z,7.33
2022-10-11T04:13:40.410Z,7.34
2022-10-11T04:14:40.318Z,7.25
2022-10-11T04:15:40.230Z,7.29
2022-10-11T04:16:40.145Z,7.24
2022-10-11T04:17:40.046Z,7.18
2022-10-11T04:18:39.953Z,7.19
2022-10-11T04:19:39.860Z,7.19
2022-10-11T04:20:39.776Z,7.21
2022-10-11T04:21:39.678Z,7.06
2022-10-11T04:22:39.592Z,7.10
2022-10-11T04:23:39.495Z,7.04
2022-10-11T04:24:39.404Z,7.03
2022-10-11T04:25:39.310Z,7.04
2022-10-11T04:26:39.221Z,7.06
2022-10-11T04:27:39.147Z,7.00
2022-10-11T04:28:39.122Z,7.10
2022-10-11T04:29:38.949Z,7.08
2022-10-11T04:30:38.853Z,7.03
2022-10-11T04:31:38.763Z,7.06
2022-10-11T04:32:38.672Z,7.11
2022-10-11T04:33:38.585Z,7.07
2022-10-11T04:34:38.491Z,7.00
2022-10-11T04:35:38.398Z,7.07
2022-10-11T04:36:38.306Z,6.93
2022-10-11T04:37:38.216Z,6.91
2022-10-11T04:38:38.120Z,6.99
2022-10-11T04:39:38.029Z,6.93
2022-10-11T04:40:37.938Z,6.96
2022-10-11T04:41:37.846Z,6.88
2022-10-11T04:42:37.750Z,6.97
2022-10-11T04:43:37.661Z,6.89
2022-10-11T04:44:37.570Z,6.92
2022-10-11T04:45:37.476Z,6.86
2022-10-11T04:46:37.389Z,6.92
2022-10-11T04:47:37.295Z,6.91
2022-10-11T04:48:37.205Z,6.96
2022-10-11T04:49:37.111Z,6.89
2022-10-11T04:50:37.020Z,6.88
2022-10-11T04:51:36.926Z,6.79
2022-10-11T04:52:36.835Z,6.74
2022-10-11T04:53:36.747Z,6.81
2022-10-11T04:54:36.651Z,6.79
2022-10-11T04:55:36.562Z,6.88
2022-10-11T04:56:36.473Z,6.79
2022-10-11T04:57:36.373Z,6.82
2022-10-11T04:58:36.287Z,6.75
2022-10-11T04:59:36.189Z,6.78
2022-10-11T05:00:36.095Z,6.79
2022-10-11T05:01:36.102Z,6.82
2022-10-11T05:02:35.922Z,6.78
2022-10-11T05:03:35.827Z,6.70
2022-10-11T05:04:35.730Z,6.68
2022-10-11T05:05:35.641Z,6.65
2022-10-11T05:06:35.551Z,6.64
2022-10-11T05:07:35.454Z,6.64
2022-10-11T05:08:35.365Z,6.57
2022-10-11T05:09:35.272Z,6.64
2022-10-11T05:10:35.181Z,6.63
2022-10-11T05:11:35.092Z,6.65
2022-10-11T05:12:35.001Z,6.70
2022-10-11T05:13:34.904Z,6.70
2022-10-11T05:14:34.812Z,6.68
2022-10-11T05:15:34.718Z,6.67
2022-10-11T05:16:34.621Z,6.74
2022-10-11T05:17:34.536Z,6.67
2022-10-11T05:18:34.445Z,6.65
2022-10-11T05:19:34.353Z,6.65
2022-10-11T05:20:34.261Z,6.67
2022-10-11T05:21:34.164Z,6.71
2022-10-11T05:22:34.076Z,6.70
2022-10-11T05:23:33.979Z,6.65
2022-10-11T05:24:33.889Z,6.71
2022-10-11T05:25:33.796Z,6.65
2022-10-11T05:26:33.705Z,6.63
2022-10-11T05:27:33.613Z,6.61
2022-10-11T05:28:33.625Z,6.70
2022-10-11T05:29:33.426Z,6.78
2022-10-11T05:30:33.333Z,6.79
2022-10-11T05:31:33.248Z,6.78
2022-10-11T05:32:33.152Z,6.85
2022-10-11T05:33:33.057Z,6.86
2022-10-11T05:34:32.967Z,6.93
2022-10-11T05:35:32.868Z,6.91
2022-10-11T05:36:32.789Z,6.97
2022-10-11T05:37:32.687Z,6.89
2022-10-11T05:38:32.601Z,6.92
2022-10-11T05:39:32.505Z,6.89
2022-10-11T05:40:32.419Z,6.83
2022-10-11T05:41:32.320Z,6.86
2022-10-11T05:42:32.225Z,6.85
2022-10-11T05:43:32.138Z,6.91
2022-10-11T05:44:32.047Z,7.00
2022-10-11T05:45:31.956Z,7.07
2022-10-11T05:46:31.864Z,7.03
2022-10-11T05:47:31.777Z,6.99
2022-10-11T05:48:31.678Z,6.93
2022-10-11T05:49:31.585Z,7.06
2022-10-11T05:50:31.496Z,6.93
2022-10-11T05:51:31.407Z,7.00
2022-10-11T05:52:31.311Z,7.07
2022-10-11T05:53:31.218Z,7.07
2022-10-11T05:54:31.121Z,6.97
2022-10-11T05:55:31.041Z,6.92
2022-10-11T05:56:30.944Z,6.89
2022-10-11T05:57:30.848Z,6.97
2022-10-11T05:58:30.754Z,6.89
2022-10-11T05:59:30.663Z,6.75
2022-10-11T06:00:30.573Z,6.86
2022-10-11T06:01:30.583Z,6.79
2022-10-11T06:02:30.384Z,6.79
2022-10-11T06:03:30.296Z,6.73
2022-10-11T06:04:30.210Z,6.79
2022-10-11T06:05:30.110Z,6.78
2022-10-11T06:06:30.022Z,6.88
2022-10-11T06:07:29.924Z,6.88
2022-10-11T06:08:29.836Z,6.92
2022-10-11T06:09:29.740Z,6.93
2022-10-11T06:10:29.653Z,6.97
2022-10-11T06:11:29.556Z,6.92
2022-10-11T06:12:29.470Z,6.97
2022-10-11T06:13:29.375Z,6.92
2022-10-11T06:14:29.278Z,6.85
2022-10-11T06:15:29.190Z,6.85
2022-10-11T06:16:29.107Z,6.92
2022-10-11T06:17:29.007Z,6.96
2022-10-11T06:18:28.916Z,6.85
2022-10-11T06:19:28.825Z,6.86
2022-10-11T06:20:28.875Z,6.96
2022-10-11T06:21:28.640Z,6.91
2022-10-11T06:22:28.546Z,6.81
2022-10-11T06:23:28.457Z,6.89
2022-10-11T06:24:28.363Z,6.81
2022-10-11T06:25:28.268Z,6.91
2022-10-11T06:26:28.176Z,6.93
2022-10-11T06:27:28.083Z,6.92
2022-10-11T06:28:28.057Z,6.93
2022-10-11T06:29:27.895Z,6.89
2022-10-11T06:30:27.860Z,6.89
2022-10-11T06:31:27.720Z,6.79
2022-10-11T06:32:27.627Z,6.92
2022-10-11T06:33:27.528Z,6.93
2022-10-11T06:34:27.439Z,7.08
2022-10-11T06:35:27.353Z,7.07
2022-10-11T06:36:27.249Z,6.99
2022-10-11T06:37:27.159Z,6.97
2022-10-11T06:38:27.073Z,7.04
2022-10-11T06:39:26.979Z,7.07
2022-10-11T06:40:26.946Z,7.03
2022-10-11T06:41:26.798Z,7.04
2022-10-11T06:42:26.708Z,7.08
2022-10-11T06:43:26.610Z,7.21
2022-10-11T06:44:26.521Z,7.21
2022-10-11T06:45:26.427Z,7.18
2022-10-11T06:46:26.332Z,7.22
2022-10-11T06:47:26.246Z,7.21
2022-10-11T06:48:26.150Z,7.25
2022-10-11T06:49:26.060Z,7.22
2022-10-11T06:50:47.086Z,7.34
2022-10-11T06:51:25.877Z,7.39
2022-10-11T06:52:25.788Z,7.40
2022-10-11T06:53:25.688Z,7.42
2022-10-11T06:54:25.597Z,7.44
2022-10-11T06:55:25.506Z,7.42
2022-10-11T06:56:25.417Z,7.40
2022-10-11T06:57:25.320Z,7.54
2022-10-11T06:58:25.233Z,7.58
2022-10-11T06:59:25.138Z,7.60
2022-10-11T07:00:25.047Z,7.64
2022-10-11T07:01:24.991Z,7.68
2022-10-11T07:02:24.870Z,7.71
2022-10-11T07:03:24.775Z,7.77
2022-10-11T07:04:24.686Z,7.84
2022-10-11T07:05:24.589Z,7.92
2022-10-11T07:06:24.499Z,7.95
2022-10-11T07:07:24.405Z,7.87
2022-10-11T07:08:24.311Z,8.04
2022-10-11T07:09:24.223Z,8.01
2022-10-11T07:10:24.137Z,8.06
2022-10-11T07:11:24.037Z,8.04
2022-10-11T07:12:23.948Z,8.12
2022-10-11T07:13:23.858Z,8.13
2022-10-11T07:14:23.765Z,8.17
2022-10-11T07:15:23.677Z,8.16
2022-10-11T07:16:23.578Z,8.28
2022-10-11T07:17:23.491Z,8.42
2022-10-11T07:18:23.402Z,8.70
2022-10-11T07:19:23.307Z,8.71
2022-10-11T07:20:23.212Z,8.80
2022-10-11T07:21:23.122Z,8.75
2022-10-11T07:22:23.032Z,8.83
2022-10-11T07:23:22.942Z,8.86
2022-10-11T07:24:22.857Z,8.96
2022-10-11T07:25:22.752Z,9.04
2022-10-11T07:26:22.661Z,9.11
2022-10-11T07:27:22.577Z,9.36
2022-10-11T07:28:22.654Z,9.45
2022-10-11T07:29:22.392Z,9.65
2022-10-11T07:30:22.310Z,9.77
2022-10-11T07:31:22.211Z,9.94
2022-10-11T07:32:22.117Z,10.03
2022-10-11T07:33:22.028Z,10.14
2022-10-11T07:34:21.935Z,10.16
2022-10-11T07:35:21.853Z,10.27
2022-10-11T07:36:21.761Z,10.35
2022-10-11T07:37:21.663Z,10.46
2022-10-11T07:38:21.572Z,10.49
2022-10-11T07:39:21.478Z,10.60
2022-10-11T07:40:21.389Z,10.64
2022-10-11T07:41:21.304Z,10.64
2022-10-11T07:42:21.215Z,10.64
2022-10-11T07:43:21.119Z,10.72
2022-10-11T07:44:21.028Z,10.82
2022-10-11T07:45:20.938Z,10.79
2022-10-11T07:46:20.850Z,10.86
2022-10-11T07:47:20.758Z,10.91
2022-10-11T07:48:20.669Z,10.90
2022-10-11T07:49:20.571Z,11.08
2022-10-11T07:50:20.482Z,11.13
2022-10-11T07:51:20.417Z,11.16
2022-10-11T07:52:20.298Z,11.25
2022-10-11T07:53:20.206Z,11.23
2022-10-11T07:54:20.121Z,11.23
2022-10-11T07:55:20.032Z,11.27
2022-10-11T07:56:19.933Z,11.31
2022-10-11T07:57:19.848Z,11.33
2022-10-11T07:58:19.755Z,11.38
2022-10-11T07:59:19.667Z,11.48
2022-10-11T08:00:19.574Z,11.54
2022-10-11T08:01:19.512Z,11.48
2022-10-11T08:02:19.395Z,11.45
2022-10-11T08:03:19.326Z,11.45
2022-10-11T08:04:19.214Z,11.62
2022-10-11T08:05:19.123Z,11.61
2022-10-11T08:06:19.037Z,11.62
2022-10-11T08:07:18.941Z,11.70
2022-10-11T08:08:18.859Z,11.67
2022-10-11T08:09:18.762Z,11.64
2022-10-11T08:10:18.672Z,11.77
2022-10-11T08:11:18.589Z,11.70
2022-10-11T08:12:18.496Z,11.77
2022-10-11T08:13:18.401Z,11.76
2022-10-11T08:14:18.306Z,11.80
2022-10-11T08:15:18.224Z,11.88
2022-10-11T08:16:18.126Z,11.85
2022-10-11T08:17:18.042Z,11.96
2022-10-11T08:18:17.958Z,11.97
2022-10-11T08:19:17.862Z,12.04
2022-10-11T08:20:17.774Z,12.03
2022-10-11T08:21:17.683Z,12.05
2022-10-11T08:22:17.609Z,12.00
2022-10-11T08:23:17.499Z,12.07
2022-10-11T08:24:17.408Z,12.13
2022-10-11T08:25:17.323Z,12.17
2022-10-11T08:26:17.236Z,12.33
2022-10-11T08:27:17.151Z,12.29
2022-10-11T08:28:17.171Z,12.32
2022-10-11T08:29:16.963Z,12.32
2022-10-11T08:30:16.873Z,12.35
2022-10-11T08:31:16.809Z,12.36
2022-10-11T08:32:16.693Z,12.40
2022-10-11T08:33:16.600Z,12.40
2022-10-11T08:34:16.515Z,12.41
2022-10-11T08:35:16.420Z,12.44
2022-10-11T08:36:16.333Z,12.50
2022-10-11T08:37:16.242Z,12.41
2022-10-11T08:38:16.150Z,12.51
2022-10-11T08:39:16.062Z,12.50
2022-10-11T08:40:15.981Z,12.58
2022-10-11T08:41:15.883Z,12.53
2022-10-11T08:42:15.793Z,12.65
2022-10-11T08:43:15.709Z,12.68
2022-10-11T08:44:15.617Z,12.63
2022-10-11T08:45:15.538Z,12.65
2022-10-11T08:46:15.434Z,12.68
2022-10-11T08:47:15.349Z,12.71
2022-10-11T08:48:15.257Z,12.66
2022-10-11T08:49:15.173Z,12.65
2022-10-11T08:50:15.078Z,12.59
2022-10-11T08:51:14.990Z,12.66
2022-10-11T08:52:14.938Z,12.73
2022-10-11T08:53:14.814Z,12.76
2022-10-11T08:54:14.719Z,12.84
2022-10-11T08:55:14.640Z,12.91
2022-10-11T08:56:14.543Z,12.81
2022-10-11T08:57:14.458Z,12.84
2022-10-11T08:58:14.368Z,12.96
2022-10-11T08:59:14.283Z,12.95
2022-10-11T09:00:14.188Z,12.98
2022-10-11T09:01:14.131Z,12.95
2022-10-11T09:02:14.011Z,13.11
2022-10-11T09:03:13.926Z,13.06
2022-10-11T09:04:13.832Z,13.04
2022-10-11T09:05:14.454Z,13.06
2022-10-11T09:06:13.654Z,13.13
2022-10-11T09:07:13.559Z,13.20
2022-10-11T09:08:13.471Z,13.20
2022-10-11T09:09:13.383Z,13.19
2022-10-11T09:10:13.297Z,13.20
2022-10-11T09:11:13.210Z,13.23
2022-10-11T09:12:13.123Z,13.21
2022-10-11T09:13:13.031Z,13.20
2022-10-11T09:14:12.938Z,13.24
2022-10-11T09:15:12.848Z,13.19
2022-10-11T09:16:12.786Z,13.24
2022-10-11T09:17:12.677Z,13.19
2022-10-11T09:18:12.588Z,13.13
2022-10-11T09:19:12.505Z,13.09
2022-10-11T09:20:12.412Z,13.06
2022-10-11T09:21:12.317Z,13.06
2022-10-11T09:22:12.230Z,13.13
2022-10-11T09:23:12.141Z,13.08
2022-10-11T09:24:12.050Z,13.13
2022-10-11T09:25:11.963Z,13.08
2022-10-11T09:26:11.870Z,13.19
2022-10-11T09:27:11.790Z,13.23
2022-10-11T09:28:11.766Z,13.19
2022-10-11T09:29:11.666Z,13.20
2022-10-11T09:30:11.519Z,13.32
2022-10-11T09:31:11.428Z,13.27
2022-10-11T09:32:11.344Z,13.29
2022-10-11T09:33:11.256Z,13.30
2022-10-11T09:34:11.167Z,13.29
2022-10-11T09:35:11.073Z,13.32
2022-10-11T09:36:10.990Z,13.29
2022-10-11T09:37:10.896Z,13.36
2022-10-11T09:38:10.804Z,13.36
2022-10-11T09:39:10.720Z,13.36
2022-10-11T09:40:10.629Z,13.39
2022-10-11T09:41:10.571Z,13.43
2022-10-11T09:42:10.461Z,13.42
2022-10-11T09:43:10.362Z,13.45
2022-10-11T09:44:10.275Z,13.42
2022-10-11T09:45:10.208Z,13.57
2022-10-11T09:46:10.094Z,13.55
2022-10-11T09:47:10.011Z,13.71
2022-10-11T09:48:09.920Z,13.64
2022-10-11T09:49:09.833Z,13.72
2022-10-11T09:50:09.751Z,13.67
2022-10-11T09:51:09.663Z,13.64
2022-10-11T09:52:09.564Z,13.65
2022-10-11T09:53:09.481Z,13.64
2022-10-11T09:54:09.390Z,13.78
2022-10-11T09:55:09.298Z,13.79
2022-10-11T09:56:09.675Z,13.86
2022-10-11T09:57:09.124Z,14.01
2022-10-11T09:58:09.039Z,13.94
2022-10-11T09:59:08.947Z,14.03
2022-10-11T10:00:08.853Z,13.97
2022-10-11T10:01:08.772Z,13.96
2022-10-11T10:02:08.790Z,14.03
2022-10-11T10:03:08.593Z,13.93
2022-10-11T10:04:08.509Z,13.97
2022-10-11T10:05:08.418Z,13.93
2022-10-11T10:06:08.959Z,13.88
2022-10-11T10:07:08.242Z,13.85
2022-10-11T10:08:08.158Z,13.80
2022-10-11T10:09:08.058Z,13.76
2022-10-11T10:10:07.978Z,13.63
2022-10-11T10:11:07.891Z,13.61
2022-10-11T10:12:07.798Z,13.64
2022-10-11T10:13:07.714Z,13.58
2022-10-11T10:14:07.676Z,13.60
2022-10-11T10:15:07.535Z,13.61
2022-10-11T10:16:07.806Z,13.63
2022-10-11T10:17:07.352Z,13.67
2022-10-11T10:18:07.266Z,13.64
2022-10-11T10:19:07.186Z,13.64
2022-10-11T10:20:07.084Z,13.76
2022-10-11T10:21:07.065Z,13.75
2022-10-11T10:22:06.912Z,13.67
2022-10-11T10:23:06.829Z,13.61
2022-10-11T10:24:06.735Z,13.68
2022-10-11T10:25:06.646Z,13.67
2022-10-11T10:26:07.021Z,13.57
2022-10-11T10:27:06.473Z,13.53
2022-10-11T10:28:06.377Z,13.58
2022-10-11T10:29:06.353Z,13.54
2022-10-11T10:30:06.209Z,13.55
2022-10-11T10:31:06.114Z,13.51
2022-10-11T10:32:14.758Z,13.68
2022-10-11T10:33:05.941Z,13.67
2022-10-11T10:34:05.853Z,13.80
2022-10-11T10:35:05.764Z,13.88
2022-10-11T10:36:06.007Z,13.94
2022-10-11T10:37:05.583Z,14.05
2022-10-11T10:38:05.498Z,14.01
2022-10-11T10:39:05.406Z,13.96
2022-10-11T10:40:05.319Z,14.12
2022-10-11T10:41:05.232Z,14.09
2022-10-11T10:42:05.149Z,14.09
2022-10-11T10:43:05.062Z,14.15
2022-10-11T10:44:04.970Z,14.26
2022-10-11T10:45:09.715Z,14.30
2022-10-11T10:46:05.191Z,14.26
2022-10-11T10:47:04.705Z,14.23
2022-10-11T10:48:04.622Z,14.38
2022-10-11T10:49:53.234Z,14.41
2022-10-11T10:50:04.443Z,14.36
2022-10-11T10:51:09.661Z,14.36
2022-10-11T10:52:04.265Z,14.26
2022-10-11T10:53:04.177Z,14.27
2022-10-11T10:54:04.102Z,14.36
2022-10-11T10:55:04.001Z,14.34
2022-10-11T10:56:04.372Z,14.36
2022-10-11T10:57:03.821Z,14.44
2022-10-11T10:58:03.737Z,14.51
2022-10-11T10:59:03.652Z,14.48
2022-10-11T11:00:03.561Z,14.67
2022-10-11T11:01:03.473Z,14.66
2022-10-11T11:02:16.029Z,14.73
2022-10-11T11:03:03.301Z,14.85
2022-10-11T11:04:03.211Z,14.77
2022-10-11T11:05:03.146Z,14.70
2022-10-11T11:06:03.445Z,14.69
2022-10-11T11:07:02.952Z,14.73
2022-10-11T11:08:02.859Z,14.79
2022-10-11T11:09:02.774Z,14.79
2022-10-11T11:10:02.694Z,14.83
2022-10-11T11:11:02.592Z,14.87
2022-10-11T11:12:02.499Z,14.86
2022-10-11T11:13:02.423Z,14.89
2022-10-11T11:14:02.331Z,14.92
2022-10-11T11:15:02.264Z,14.87
2022-10-11T11:16:02.328Z,14.96
2022-10-11T11:17:02.072Z,14.93
2022-10-11T11:18:01.985Z,14.87
2022-10-11T11:19:01.892Z,14.96
2022-10-11T11:20:01.806Z,15.04
2022-10-11T11:21:01.729Z,15.04
2022-10-11T11:22:01.628Z,15.11
2022-10-11T11:23:01.545Z,15.14
2022-10-11T11:24:01.459Z,15.17
2022-10-11T11:25:01.368Z,15.14
2022-10-11T11:26:01.278Z,15.23
2022-10-11T11:27:01.198Z,15.10
2022-10-11T11:28:01.111Z,15.08
2022-10-11T11:29:01.074Z,15.08
2022-10-11T11:30:00.932Z,15.22
2022-10-11T11:31:00.844Z,15.29
2022-10-11T11:32:00.757Z,15.19
2022-10-11T11:33:00.669Z,15.20
2022-10-11T11:34:00.582Z,15.22
2022-10-11T11:35:00.497Z,15.17
2022-10-11T11:36:00.409Z,15.27
2022-10-11T11:37:00.324Z,15.35
2022-10-11T11:38:05.364Z,15.36
2022-10-11T11:39:00.147Z,15.41
2022-10-11T11:40:00.066Z,15.47
2022-10-11T11:40:59.966Z,15.56
2022-10-11T11:41:59.886Z,15.62
2022-10-11T11:42:59.793Z,15.54
2022-10-11T11:43:59.716Z,15.66
2022-10-11T11:44:59.620Z,15.65
2022-10-11T11:45:59.532Z,15.60
2022-10-11T11:46:59.462Z,15.68
2022-10-11T11:47:59.358Z,15.69
2022-10-11T11:48:59.272Z,15.63
2022-10-11T11:49:59.187Z,15.80
2022-10-11T11:50:59.105Z,15.68
2022-10-11T11:51:59.010Z,15.63
2022-10-11T11:52:58.924Z,15.77
2022-10-11T11:53:58.839Z,15.78
2022-10-11T11:55:03.048Z,15.88
2022-10-11T11:55:58.666Z,15.90
2022-10-11T11:56:58.599Z,15.81
2022-10-11T11:58:00.167Z,15.73
2022-10-11T11:58:58.406Z,15.85
2022-10-11T11:59:58.314Z,15.77
2022-10-11T12:00:58.230Z,15.73
2022-10-11T12:01:58.199Z,15.78
2022-10-11T12:02:58.061Z,15.72
2022-10-11T12:03:57.962Z,15.72
2022-10-11T12:04:57.882Z,15.76
2022-10-11T12:05:57.799Z,15.62
2022-10-11T12:07:14.948Z,15.62
2022-10-11T12:07:57.625Z,15.63
2022-10-11T12:08:57.534Z,15.54
2022-10-11T12:09:57.451Z,15.62
2022-10-11T12:10:57.363Z,15.63
2022-10-11T12:11:57.273Z,15.76
2022-10-11T12:12:57.191Z,15.83
2022-10-11T12:13:57.118Z,15.84
2022-10-11T12:14:57.016Z,15.95
2022-10-11T12:15:56.927Z,15.90
2022-10-11T12:16:56.849Z,15.85
2022-10-11T12:17:56.756Z,15.88
2022-10-11T12:18:56.668Z,15.91
2022-10-11T12:19:56.588Z,16.00
2022-10-11T12:20:56.502Z,16.05
2022-10-11T12:21:56.430Z,16.00
2022-10-11T12:22:56.325Z,15.90
2022-10-11T12:23:56.238Z,15.87
2022-10-11T12:24:56.147Z,15.99
2022-10-11T12:25:56.065Z,15.70
2022-10-11T12:26:55.974Z,15.76
2022-10-11T12:27:55.887Z,15.80
2022-10-11T12:28:55.804Z,15.78
2022-10-11T12:29:55.721Z,15.76
2022-10-11T12:30:55.627Z,15.66
2022-10-11T12:31:55.544Z,15.60
2022-10-11T12:32:55.458Z,15.66
2022-10-11T12:33:55.372Z,15.69
2022-10-11T12:34:55.280Z,15.78
2022-10-11T12:35:55.197Z,15.76
2022-10-11T12:36:55.115Z,15.68
2022-10-11T12:37:55.023Z,15.68
2022-10-11T12:38:54.941Z,15.72
2022-10-11T12:39:54.847Z,15.62
2022-10-11T12:40:54.789Z,15.62
2022-10-11T12:41:54.669Z,15.62
2022-10-11T12:42:54.593Z,15.78
2022-10-11T12:43:54.505Z,15.72
2022-10-11T12:44:54.416Z,15.77
2022-10-11T12:45:54.336Z,15.84
2022-10-11T12:46:54.247Z,15.76
2022-10-11T12:47:54.159Z,15.81
2022-10-11T12:48:54.076Z,15.73
2022-10-11T12:49:53.991Z,15.70
2022-10-11T12:50:53.899Z,15.69
2022-10-11T12:51:53.815Z,15.59
2022-10-11T12:52:53.727Z,15.51
2022-10-11T12:54:14.357Z,15.47
2022-10-11T12:54:53.553Z,15.52
2022-10-11T12:55:53.464Z,15.50
2022-10-11T12:56:53.398Z,15.56
2022-10-11T12:57:53.290Z,15.50
2022-10-11T12:58:53.203Z,15.56
2022-10-11T12:59:53.123Z,15.62
2022-10-11T13:00:53.089Z,15.76
2022-10-11T13:01:52.945Z,15.69
2022-10-11T13:02:52.863Z,15.56
2022-10-11T13:03:52.777Z,15.51